Time;durP1;ratioP1;P1;durP2;ratioP2;P2;SDS_P1;SDS_P2;PMS_P1;PMS_P2;Temp;Humidity;BMP_temperature;BMP_pressure;BME280_temperature;BME280_humidity;BME280_pressure;Samples;Min_cycle;Max_cycle;Signal;HPM_P1;HPM_P2
2022/01/07 00:00:26;;;;;;;5.40;3.30;;;;;;;;;;5070534;28;20028;-68
2022/01/07 00:02:54;;;;;;;7.07;3.20;;;;;;;;;;5070810;28;20487;-68
2022/01/07 00:05:20;;;;;;;6.78;2.83;;;;;;;;;;5070442;28;20029;-68
2022/01/07 00:07:46;;;;;;;6.55;3.00;;;;;;;;;;5070072;28;20029;-68
2022/01/07 00:10:15;;;;;;;5.65;3.05;;;;;;;;;;5070322;28;20024;-68
2022/01/07 00:12:40;;;;;;;7.05;3.10;;;;;;;;;;5070294;28;20043;-68
2022/01/07 00:15:08;;;;;;;6.88;3.03;;;;;;;;;;5069986;28;20024;-68
2022/01/07 00:17:34;;;;;;;4.82;2.60;;;;;;;;;;5070134;28;20040;-68
2022/01/07 00:20:00;;;;;;;6.05;2.70;;;;;;;;;;5070141;28;20412;-68
2022/01/07 00:22:26;;;;;;;5.18;2.80;;;;;;;;;;5070387;28;20032;-68
2022/01/07 00:24:51;;;;;;;6.20;2.53;;;;;;;;;;5069726;28;20028;-68
2022/01/07 00:27:17;;;;;;;6.60;2.63;;;;;;;;;;5069786;28;20089;-68
2022/01/07 00:29:42;;;;;;;5.00;2.67;;;;;;;;;;5069956;28;20024;-68
2022/01/07 00:32:08;;;;;;;7.20;2.50;;;;;;;;;;5070021;28;20035;-68
2022/01/07 00:34:33;;;;;;;8.70;3.15;;;;;;;;;;5069964;28;20029;-68
2022/01/07 00:36:59;;;;;;;4.13;2.15;;;;;;;;;;5069755;28;20052;-68
2022/01/07 00:39:25;;;;;;;5.90;2.50;;;;;;;;;;5069925;28;20385;-68
2022/01/07 00:41:50;;;;;;;5.63;2.70;;;;;;;;;;5070111;28;20614;-68
2022/01/07 00:44:15;;;;;;;5.03;2.35;;;;;;;;;;5069857;28;20029;-68
2022/01/07 00:46:41;;;;;;;4.20;2.17;;;;;;;;;;5069498;28;20043;-68
2022/01/07 00:49:06;;;;;;;6.35;2.60;;;;;;;;;;5069930;28;20028;-69
2022/01/07 00:51:32;;;;;;;5.25;2.60;;;;;;;;;;5069774;28;20025;-68
2022/01/07 00:53:57;;;;;;;5.35;2.35;;;;;;;;;;5069972;28;20033;-68
2022/01/07 00:56:23;;;;;;;5.53;2.50;;;;;;;;;;5069546;28;20275;-68
2022/01/07 00:58:48;;;;;;;4.80;2.30;;;;;;;;;;5069577;28;20035;-68
2022/01/07 01:01:14;;;;;;;4.47;2.47;;;;;;;;;;5069743;28;20028;-68
2022/01/07 01:03:40;;;;;;;4.60;2.30;;;;;;;;;;5069734;28;20103;-68
2022/01/07 01:06:05;;;;;;;5.97;2.67;;;;;;;;;;5069488;28;20509;-68
2022/01/07 01:08:31;;;;;;;6.85;3.05;;;;;;;;;;5069741;28;20033;-68
2022/01/07 01:10:56;;;;;;;5.28;2.42;;;;;;;;;;5069658;28;20036;-68
2022/01/07 01:13:22;;;;;;;5.15;2.28;;;;;;;;;;5069492;28;20032;-68
2022/01/07 01:15:48;;;;;;;4.90;2.40;;;;;;;;;;5069581;28;20035;-68
2022/01/07 01:18:14;;;;;;;5.45;2.40;;;;;;;;;;5069583;28;20414;-68
2022/01/07 01:20:39;;;;;;;5.68;2.58;;;;;;;;;;5069729;28;20115;-68
2022/01/07 01:23:05;;;;;;;5.90;2.50;;;;;;;;;;5069667;28;20379;-68
2022/01/07 01:25:31;;;;;;;5.93;2.50;;;;;;;;;;5069572;28;20373;-68
2022/01/07 01:27:57;;;;;;;5.80;2.50;;;;;;;;;;5069059;28;20037;-68
2022/01/07 01:30:27;;;;;;;6.35;2.70;;;;;;;;;;5069372;28;20049;-68
2022/01/07 01:32:53;;;;;;;4.82;2.20;;;;;;;;;;5069577;28;20067;-68
2022/01/07 01:35:19;;;;;;;4.15;1.92;;;;;;;;;;5069514;28;20052;-69
2022/01/07 01:37:49;;;;;;;5.15;2.47;;;;;;;;;;5070395;28;20182;-68
2022/01/07 01:40:15;;;;;;;5.50;2.42;;;;;;;;;;5073212;28;20029;-68
2022/01/07 01:42:41;;;;;;;5.50;2.03;;;;;;;;;;5073273;28;20349;-68
2022/01/07 01:45:09;;;;;;;5.53;2.08;;;;;;;;;;5073051;28;20491;-70
2022/01/07 01:47:35;;;;;;;4.85;1.92;;;;;;;;;;5072863;28;20067;-68
2022/01/07 01:50:00;;;;;;;4.70;2.03;;;;;;;;;;5073072;28;20060;-68
2022/01/07 01:52:26;;;;;;;4.22;1.90;;;;;;;;;;5073248;28;20111;-68
2022/01/07 01:54:52;;;;;;;5.28;2.20;;;;;;;;;;5072920;28;20074;-68
2022/01/07 01:57:17;;;;;;;3.65;1.80;;;;;;;;;;5072914;28;20032;-68
2022/01/07 01:59:43;;;;;;;5.22;1.98;;;;;;;;;;5072662;28;20024;-68
2022/01/07 02:02:08;;;;;;;4.45;1.88;;;;;;;;;;5072771;28;20035;-68
2022/01/07 02:04:36;;;;;;;7.28;1.95;;;;;;;;;;5054759;28;20111;-68
2022/01/07 02:07:01;;;;;;;3.60;1.80;;;;;;;;;;5072455;28;20024;-68
2022/01/07 02:09:35;;;;;;;4.00;1.92;;;;;;;;;;5072689;28;20021;-68
2022/01/07 02:12:00;;;;;;;5.38;2.20;;;;;;;;;;5072560;28;20028;-68
2022/01/07 02:14:26;;;;;;;4.40;1.88;;;;;;;;;;5072411;28;20373;-68
2022/01/07 02:16:51;;;;;;;7.10;2.00;;;;;;;;;;5072479;28;20024;-68
2022/01/07 02:19:17;;;;;;;4.88;2.22;;;;;;;;;;5072701;28;20056;-68
2022/01/07 02:21:42;;;;;;;3.40;1.83;;;;;;;;;;5072431;28;20085;-68
2022/01/07 02:24:08;;;;;;;3.72;1.70;;;;;;;;;;5072566;28;20020;-68
2022/01/07 02:26:35;;;;;;;4.50;1.83;;;;;;;;;;5071990;28;20032;-69
2022/01/07 02:29:01;;;;;;;6.95;2.30;;;;;;;;;;5072161;28;20099;-68
2022/01/07 02:31:27;;;;;;;10.40;1.98;;;;;;;;;;5072744;28;20153;-68
2022/01/07 02:33:53;;;;;;;4.05;1.65;;;;;;;;;;5072236;28;20172;-68
2022/01/07 02:36:19;;;;;;;5.30;1.80;;;;;;;;;;5072290;28;20029;-68
2022/01/07 02:38:44;;;;;;;5.10;2.03;;;;;;;;;;5071824;28;20048;-68
2022/01/07 02:41:11;;;;;;;4.53;1.70;;;;;;;;;;5071932;28;20048;-68
2022/01/07 02:43:36;;;;;;;5.18;1.98;;;;;;;;;;5072071;28;20035;-68
2022/01/07 02:46:02;;;;;;;7.18;2.17;;;;;;;;;;5071812;28;20024;-68
2022/01/07 02:48:28;;;;;;;3.45;1.70;;;;;;;;;;5071182;28;20032;-68
2022/01/07 02:50:53;;;;;;;4.97;1.90;;;;;;;;;;5071856;28;20028;-68
2022/01/07 02:53:19;;;;;;;3.08;1.50;;;;;;;;;;5071754;28;20025;-68
2022/01/07 02:55:45;;;;;;;4.25;1.60;;;;;;;;;;5071655;28;20079;-68
2022/01/07 02:58:11;;;;;;;3.60;1.42;;;;;;;;;;5071314;28;20480;-68
2022/01/07 03:00:37;;;;;;;4.03;1.63;;;;;;;;;;5071683;28;20067;-68
2022/01/07 03:03:04;;;;;;;3.45;1.65;;;;;;;;;;5071617;28;20387;-68
2022/01/07 03:05:29;;;;;;;2.63;1.50;;;;;;;;;;5071586;28;20373;-68
2022/01/07 03:07:55;;;;;;;4.88;1.48;;;;;;;;;;5071331;28;20349;-68
2022/01/07 03:10:26;;;;;;;3.17;1.70;;;;;;;;;;5071464;28;20458;-68
2022/01/07 03:12:53;;;;;;;2.88;1.45;;;;;;;;;;5071380;28;20388;-68
2022/01/07 03:15:19;;;;;;;3.20;1.50;;;;;;;;;;5071345;28;20115;-69
2022/01/07 03:17:44;;;;;;;4.35;1.65;;;;;;;;;;5071197;28;20108;-68
2022/01/07 03:20:15;;;;;;;3.28;1.55;;;;;;;;;;5071282;28;20055;-68
2022/01/07 03:22:41;;;;;;;;;;;;;;;;;;5071707;28;20036;-68
2022/01/07 03:25:07;;;;;;;2.60;1.40;;;;;;;;;;5071485;28;19913;-68
2022/01/07 03:27:33;;;;;;;3.67;1.70;;;;;;;;;;5070889;28;20106;-68
2022/01/07 03:29:59;;;;;;;3.15;1.30;;;;;;;;;;5071288;28;20024;-68
2022/01/07 03:32:25;;;;;;;4.35;1.60;;;;;;;;;;5071060;28;20594;-68
2022/01/07 03:34:52;;;;;;;3.33;1.40;;;;;;;;;;5071421;28;20111;-68
2022/01/07 03:37:17;;;;;;;4.03;1.50;;;;;;;;;;5070663;28;20131;-68
2022/01/07 03:39:43;;;;;;;2.80;1.45;;;;;;;;;;5070858;28;20447;-68
2022/01/07 03:42:09;;;;;;;2.95;1.40;;;;;;;;;;5070887;28;20460;-68
2022/01/07 03:44:34;;;;;;;3.78;1.60;;;;;;;;;;5070798;28;20067;-68
2022/01/07 03:46:59;;;;;;;5.05;1.42;;;;;;;;;;5070762;28;20052;-71
2022/01/07 03:49:25;;;;;;;2.80;1.40;;;;;;;;;;5070711;28;20260;-69
2022/01/07 03:51:50;;;;;;;2.65;1.00;;;;;;;;;;5070590;28;20063;-68
2022/01/07 03:54:16;;;;;;;3.70;1.38;;;;;;;;;;5070683;28;20637;-68
2022/01/07 03:56:41;;;;;;;4.15;1.20;;;;;;;;;;5070854;28;20037;-68
2022/01/07 03:59:07;;;;;;;2.85;1.40;;;;;;;;;;5070117;28;20097;-68
2022/01/07 04:01:32;;;;;;;3.15;1.20;;;;;;;;;;5069706;28;20504;-68
2022/01/07 04:03:58;;;;;;;2.88;1.20;;;;;;;;;;5070447;28;20033;-68
2022/01/07 04:06:23;;;;;;;3.05;1.20;;;;;;;;;;5070331;28;20442;-68
2022/01/07 04:08:49;;;;;;;2.45;1.20;;;;;;;;;;5070295;28;20505;-68
2022/01/07 04:11:15;;;;;;;3.40;1.20;;;;;;;;;;5070694;28;20028;-68
2022/01/07 04:13:41;;;;;;;2.80;1.30;;;;;;;;;;5070333;28;20029;-68
2022/01/07 04:16:07;;;;;;;3.90;1.35;;;;;;;;;;5070280;28;20505;-68
2022/01/07 04:18:32;;;;;;;2.28;1.20;;;;;;;;;;5070214;28;20041;-68
2022/01/07 04:20:58;;;;;;;3.03;1.23;;;;;;;;;;5070121;28;20035;-68
2022/01/07 04:23:24;;;;;;;2.95;1.30;;;;;;;;;;5070415;28;20033;-68
2022/01/07 04:25:49;;;;;;;3.53;1.10;;;;;;;;;;5070295;28;20025;-68
2022/01/07 04:28:15;;;;;;;4.20;1.40;;;;;;;;;;5070042;28;20032;-68
2022/01/07 04:30:43;;;;;;;2.72;1.10;;;;;;;;;;5070068;28;20039;-68
2022/01/07 04:33:12;;;;;;;2.80;1.10;;;;;;;;;;5052100;28;20395;-68
2022/01/07 04:35:38;;;;;;;2.67;1.20;;;;;;;;;;5070174;28;20032;-68
2022/01/07 04:38:05;;;;;;;3.00;1.13;;;;;;;;;;5069748;28;20052;-68
2022/01/07 04:40:32;;;;;;;3.95;1.23;;;;;;;;;;5069848;28;20056;-68
2022/01/07 04:42:58;;;;;;;3.08;1.30;;;;;;;;;;5069898;28;20434;-71
2022/01/07 04:45:24;;;;;;;2.45;1.08;;;;;;;;;;5069935;28;20404;-68
2022/01/07 04:47:49;;;;;;;2.63;1.23;;;;;;;;;;5069684;28;20488;-68
2022/01/07 04:50:17;;;;;;;5.15;1.10;;;;;;;;;;5069864;28;20039;-68
2022/01/07 04:52:44;;;;;;;2.67;1.20;;;;;;;;;;5069753;28;20032;-68
2022/01/07 04:55:14;;;;;;;2.75;1.20;;;;;;;;;;5069834;28;20099;-68
2022/01/07 04:57:39;;;;;;;1.90;0.85;;;;;;;;;;5069573;28;20082;-68
2022/01/07 05:00:06;;;;;;;2.35;1.20;;;;;;;;;;5069737;28;20411;-68
2022/01/07 05:02:32;;;;;;;2.03;1.05;;;;;;;;;;5069949;28;20184;-68
2022/01/07 05:04:57;;;;;;;2.50;1.00;;;;;;;;;;5070165;28;20024;-69
2022/01/07 05:07:23;;;;;;;2.67;0.98;;;;;;;;;;5069746;28;20033;-71
2022/01/07 05:09:48;;;;;;;2.63;1.00;;;;;;;;;;5069592;28;20028;-68
2022/01/07 05:12:13;;;;;;;1.95;0.85;;;;;;;;;;5072074;28;20025;-68
2022/01/07 05:14:39;;;;;;;2.38;0.95;;;;;;;;;;5073685;28;20509;-68
2022/01/07 05:17:05;;;;;;;2.70;1.20;;;;;;;;;;5073806;28;20110;-68
2022/01/07 05:19:30;;;;;;;3.22;1.10;;;;;;;;;;5073535;28;20472;-68
2022/01/07 05:21:56;;;;;;;2.65;1.15;;;;;;;;;;5073596;28;20383;-68
2022/01/07 05:24:21;;;;;;;5.60;3.10;;;;;;;;;;5073647;28;20122;-68
2022/01/07 05:26:46;;;;;;;8.48;4.82;;;;;;;;;;5073671;28;20024;-68
2022/01/07 05:29:12;;;;;;;6.10;3.85;;;;;;;;;;5073125;28;20408;-68
2022/01/07 05:31:37;;;;;;;4.85;2.22;;;;;;;;;;5073440;28;20464;-68
2022/01/07 05:34:03;;;;;;;3.38;1.10;;;;;;;;;;5073379;28;20028;-68
2022/01/07 05:36:28;;;;;;;2.20;1.20;;;;;;;;;;5073617;28;20024;-68
2022/01/07 05:38:54;;;;;;;2.40;1.10;;;;;;;;;;5072963;28;20648;-68
2022/01/07 05:41:20;;;;;;;4.68;1.42;;;;;;;;;;5073148;28;20027;-68
2022/01/07 05:43:46;;;;;;;3.70;1.00;;;;;;;;;;5073016;28;20016;-68
2022/01/07 05:46:14;;;;;;;3.20;1.40;;;;;;;;;;5072938;28;20025;-68
2022/01/07 05:48:41;;;;;;;2.83;1.45;;;;;;;;;;5072693;28;20017;-68
2022/01/07 05:51:07;;;;;;;2.30;1.10;;;;;;;;;;5073299;28;20130;-68
2022/01/07 05:53:32;;;;;;;4.60;1.73;;;;;;;;;;5072911;28;20056;-68
2022/01/07 05:55:58;;;;;;;2.83;1.30;;;;;;;;;;5073178;28;20063;-68
2022/01/07 05:58:23;;;;;;;2.15;1.27;;;;;;;;;;5072561;28;20037;-68
2022/01/07 06:00:49;;;;;;;4.57;1.30;;;;;;;;;;5072843;28;20020;-68
2022/01/07 06:03:14;;;;;;;5.93;1.55;;;;;;;;;;5072716;28;20021;-68
2022/01/07 06:05:39;;;;;;;2.95;1.33;;;;;;;;;;5072711;28;20029;-68
2022/01/07 06:08:05;;;;;;;4.93;1.60;;;;;;;;;;5072404;28;20115;-69
2022/01/07 06:10:30;;;;;;;6.50;1.50;;;;;;;;;;5072729;28;20442;-68
2022/01/07 06:12:56;;;;;;;5.32;1.67;;;;;;;;;;5072683;28;20028;-68
2022/01/07 06:15:22;;;;;;;3.45;1.58;;;;;;;;;;5072600;28;20020;-68
2022/01/07 06:17:47;;;;;;;5.90;1.70;;;;;;;;;;5072417;28;20063;-70
2022/01/07 06:20:13;;;;;;;10.75;1.35;;;;;;;;;;5072261;28;20009;-68
2022/01/07 06:22:38;;;;;;;7.43;1.90;;;;;;;;;;5071804;28;20539;-68
2022/01/07 06:25:05;;;;;;;5.47;1.35;;;;;;;;;;5072425;28;20419;-68
2022/01/07 06:27:31;;;;;;;4.07;1.58;;;;;;;;;;5072599;28;20021;-68
2022/01/07 06:29:57;;;;;;;5.20;1.52;;;;;;;;;;5071857;28;20036;-68
2022/01/07 06:32:23;;;;;;;3.28;1.92;;;;;;;;;;5072179;28;20021;-68
2022/01/07 06:34:50;;;;;;;4.38;1.55;;;;;;;;;;5072375;28;20036;-68
2022/01/07 06:37:15;;;;;;;6.43;1.50;;;;;;;;;;5072191;28;20180;-68
2022/01/07 06:39:41;;;;;;;4.65;1.42;;;;;;;;;;5071741;28;20097;-69
2022/01/07 06:42:07;;;;;;;5.85;1.73;;;;;;;;;;5071895;28;20074;-68
2022/01/07 06:44:33;;;;;;;5.22;1.60;;;;;;;;;;5071934;28;20021;-68
2022/01/07 06:46:58;;;;;;;4.43;1.70;;;;;;;;;;5071768;28;20033;-68
2022/01/07 06:49:24;;;;;;;7.65;1.88;;;;;;;;;;5071913;28;20017;-68
2022/01/07 06:51:50;;;;;;;8.07;1.85;;;;;;;;;;5071843;28;20540;-68
2022/01/07 06:54:16;;;;;;;5.05;1.85;;;;;;;;;;5071898;28;20024;-68
2022/01/07 06:56:43;;;;;;;6.45;2.00;;;;;;;;;;5071784;28;20025;-69
2022/01/07 06:59:09;;;;;;;7.53;2.00;;;;;;;;;;5071464;28;20035;-69
2022/01/07 07:01:34;;;;;;;12.18;3.10;;;;;;;;;;5071401;28;20060;-69
2022/01/07 07:04:00;;;;;;;11.55;2.17;;;;;;;;;;5071590;28;20098;-69
2022/01/07 07:06:25;;;;;;;4.38;2.20;;;;;;;;;;5071698;28;20036;-69
2022/01/07 07:08:51;;;;;;;10.95;2.25;;;;;;;;;;5071544;28;20024;-69
2022/01/07 07:11:17;;;;;;;5.80;2.15;;;;;;;;;;5071494;28;20023;-69
2022/01/07 07:13:42;;;;;;;10.50;2.10;;;;;;;;;;5071446;28;20093;-69
2022/01/07 07:16:07;;;;;;;4.82;2.10;;;;;;;;;;5071450;28;20431;-70
2022/01/07 07:18:33;;;;;;;9.88;2.50;;;;;;;;;;5071308;28;20024;-69
2022/01/07 07:20:58;;;;;;;9.93;3.05;;;;;;;;;;5070936;28;20020;-70
2022/01/07 07:23:24;;;;;;;7.72;2.70;;;;;;;;;;5071150;28;20373;-69
2022/01/07 07:25:51;;;;;;;8.52;2.63;;;;;;;;;;5071185;28;20055;-69
2022/01/07 07:28:17;;;;;;;10.43;2.40;;;;;;;;;;5070794;28;20081;-69
2022/01/07 07:30:42;;;;;;;6.45;2.28;;;;;;;;;;5052858;28;20016;-69
2022/01/07 07:38:34;;;;;;;7.88;2.80;;;;;;;;;;5070827;28;20074;-69
2022/01/07 07:41:00;;;;;;;8.35;2.70;;;;;;;;;;5070517;28;20020;-69
2022/01/07 07:43:25;;;;;;;8.70;3.15;;;;;;;;;;5070775;28;20032;-69
2022/01/07 07:45:51;;;;;;;7.72;3.33;;;;;;;;;;5071316;28;20046;-69
2022/01/07 07:48:16;;;;;;;9.35;3.25;;;;;;;;;;5070668;28;20082;-69
2022/01/07 07:50:41;;;;;;;14.00;4.70;;;;;;;;;;5070651;28;20028;-70
2022/01/07 07:53:07;;;;;;;15.68;5.47;;;;;;;;;;5070568;28;20024;-69
2022/01/07 07:55:33;;;;;;;20.67;7.40;;;;;;;;;;5070625;28;20023;-69
2022/01/07 07:57:58;;;;;;;25.23;10.10;;;;;;;;;;5070553;28;20036;-69
2022/01/07 08:00:23;;;;;;;23.17;9.65;;;;;;;;;;5070166;28;20069;-69
2022/01/07 08:02:49;;;;;;;15.45;7.70;;;;;;;;;;5070792;28;20020;-69
2022/01/07 08:05:15;;;;;;;10.57;4.95;;;;;;;;;;5070327;28;20069;-69
2022/01/07 08:07:40;;;;;;;8.50;3.17;;;;;;;;;;5070853;28;20348;-70
2022/01/07 08:10:06;;;;;;;6.70;3.13;;;;;;;;;;5070410;28;20491;-70
2022/01/07 08:17:59;;;;;;;6.93;3.22;;;;;;;;;;5070432;28;20077;-71
2022/01/07 08:20:25;;;;;;;8.15;3.47;;;;;;;;;;5069938;28;20492;-71
2022/01/07 08:22:51;;;;;;;9.18;3.38;;;;;;;;;;5070302;28;20542;-69
2022/01/07 08:25:16;;;;;;;9.20;3.15;;;;;;;;;;5070101;28;20025;-71
2022/01/07 08:27:42;;;;;;;6.07;3.05;;;;;;;;;;5069904;28;20035;-72
2022/01/07 08:30:15;;;;;;;11.15;3.80;;;;;;;;;;5069859;28;20017;-70
2022/01/07 08:35:27;;;;;;;7.35;3.60;;;;;;;;;;5070283;28;20043;-71
2022/01/07 08:37:52;;;;;;;9.25;3.50;;;;;;;;;;5069773;28;20051;-69
2022/01/07 08:40:18;;;;;;;13.63;3.85;;;;;;;;;;5069773;28;20100;-73
2022/01/07 08:42:44;;;;;;;7.90;3.95;;;;;;;;;;5070185;28;20029;-70
2022/01/07 08:45:09;;;;;;;9.35;3.88;;;;;;;;;;5069831;28;20020;-69
2022/01/07 08:47:35;;;;;;;11.35;4.07;;;;;;;;;;5069368;28;20438;-69
2022/01/07 08:50:00;;;;;;;12.25;4.75;;;;;;;;;;5069961;28;20032;-69
2022/01/07 08:52:26;;;;;;;11.38;4.30;;;;;;;;;;5069963;28;20028;-72
2022/01/07 08:54:51;;;;;;;7.72;4.03;;;;;;;;;;5070092;28;20503;-70
2022/01/07 08:57:21;;;;;;;10.95;3.88;;;;;;;;;;5069735;28;20574;-69
2022/01/07 08:59:48;;;;;;;8.52;3.63;;;;;;;;;;5069531;28;20031;-69
2022/01/07 09:02:14;;;;;;;8.52;2.80;;;;;;;;;;5069510;28;20020;-70
2022/01/07 09:04:39;;;;;;;8.02;3.15;;;;;;;;;;5069472;28;20476;-70
2022/01/07 09:07:05;;;;;;;9.02;3.35;;;;;;;;;;5070133;28;20367;-69
2022/01/07 09:09:30;;;;;;;6.78;3.38;;;;;;;;;;5069785;28;20025;-70
2022/01/07 09:11:55;;;;;;;5.95;3.05;;;;;;;;;;5069433;28;20379;-69
2022/01/07 09:14:21;;;;;;;8.65;2.55;;;;;;;;;;5069485;28;20025;-70
2022/01/07 09:16:47;;;;;;;6.90;2.75;;;;;;;;;;5069439;28;20033;-69
2022/01/07 09:19:12;;;;;;;7.85;2.80;;;;;;;;;;5069582;28;20028;-69
2022/01/07 09:21:37;;;;;;;6.07;2.40;;;;;;;;;;5069465;28;20017;-69
2022/01/07 09:24:03;;;;;;;10.80;3.10;;;;;;;;;;5069331;28;20027;-70
2022/01/07 09:26:29;;;;;;;7.28;2.85;;;;;;;;;;5069475;28;20082;-69
2022/01/07 09:28:54;;;;;;;7.20;2.83;;;;;;;;;;5069328;28;20020;-69
2022/01/07 09:31:19;;;;;;;5.88;2.55;;;;;;;;;;5069170;28;20025;-69
2022/01/07 09:33:45;;;;;;;7.03;2.35;;;;;;;;;;5069469;28;20070;-69
2022/01/07 09:36:11;;;;;;;5.43;2.30;;;;;;;;;;5069214;28;20403;-69
2022/01/07 09:38:36;;;;;;;6.82;2.80;;;;;;;;;;5069215;28;20049;-69
2022/01/07 09:41:02;;;;;;;3.55;2.25;;;;;;;;;;5069197;28;20395;-69
2022/01/07 09:43:27;;;;;;;6.88;2.90;;;;;;;;;;5069287;28;20033;-69
2022/01/07 09:45:53;;;;;;;5.57;2.30;;;;;;;;;;5069379;28;20060;-69
2022/01/07 09:48:18;;;;;;;7.88;2.40;;;;;;;;;;5069166;28;20056;-69
2022/01/07 09:50:45;;;;;;;5.32;2.35;;;;;;;;;;5069233;28;20036;-71
2022/01/07 09:53:15;;;;;;;5.75;2.50;;;;;;;;;;5069371;28;20029;-69
2022/01/07 09:55:42;;;;;;;11.57;4.22;;;;;;;;;;5069307;28;20039;-69
2022/01/07 09:58:08;;;;;;;9.93;2.92;;;;;;;;;;5069462;28;20032;-69
2022/01/07 10:00:44;;;;;;;5.90;3.20;;;;;;;;;;5072733;28;20046;-69
2022/01/07 10:03:15;;;;;;;6.05;2.40;;;;;;;;;;5072587;28;20059;-69
2022/01/07 10:05:45;;;;;;;;;;;;;;;;;;5073388;28;20032;-70
2022/01/07 10:08:24;;;;;;;4.15;1.92;;;;;;;;;;5072527;28;20402;-69
2022/01/07 10:11:14;;;;;;;5.10;2.08;;;;;;;;;;5072662;28;20091;-70
2022/01/07 10:13:48;;;;;;;7.43;2.17;;;;;;;;;;5072694;28;20025;-69
2022/01/07 10:16:22;;;;;;;4.35;2.00;;;;;;;;;;5072586;28;20021;-69
2022/01/07 10:18:48;;;;;;;7.55;2.63;;;;;;;;;;5072802;28;20025;-69
2022/01/07 10:21:16;;;;;;;7.18;2.90;;;;;;;;;;5072186;28;20096;-69
2022/01/07 10:23:42;;;;;;;6.93;3.33;;;;;;;;;;5072459;28;20029;-69
2022/01/07 10:26:14;;;;;;;8.05;2.90;;;;;;;;;;5072482;28;20508;-69
2022/01/07 10:28:39;;;;;;;5.93;2.50;;;;;;;;;;5072103;28;20032;-69
2022/01/07 10:31:07;;;;;;;6.88;3.17;;;;;;;;;;5072187;28;20119;-69
2022/01/07 10:33:36;;;;;;;6.43;2.55;;;;;;;;;;5072288;28;20031;-69
2022/01/07 10:36:08;;;;;;;8.10;2.60;;;;;;;;;;5072280;28;20056;-69
2022/01/07 10:38:35;;;;;;;5.40;2.47;;;;;;;;;;5072021;28;20129;-69
2022/01/07 10:41:02;;;;;;;7.45;2.38;;;;;;;;;;5072143;28;20054;-69
2022/01/07 10:43:32;;;;;;;8.73;2.10;;;;;;;;;;5072012;28;20104;-69
2022/01/07 10:45:59;;;;;;;;;;;;;;;;;;5072597;28;20035;-69
2022/01/07 10:48:51;;;;;;;6.53;1.95;;;;;;;;;;5071926;28;20291;-69
2022/01/07 10:51:23;;;;;;;4.38;1.85;;;;;;;;;;5072112;28;20074;-69
2022/01/07 10:53:54;;;;;;;4.47;1.80;;;;;;;;;;5071804;28;20021;-69
2022/01/07 10:56:22;;;;;;;5.00;1.70;;;;;;;;;;5071673;28;20066;-69
2022/01/07 10:58:51;;;;;;;5.50;1.73;;;;;;;;;;5071581;28;20029;-69
2022/01/07 11:01:19;;;;;;;4.43;1.77;;;;;;;;;;5071293;28;20037;-69
2022/01/07 11:03:47;;;;;;;3.25;1.15;;;;;;;;;;5071579;28;20020;-69
2022/01/07 11:06:12;;;;;;;3.25;1.35;;;;;;;;;;5071558;28;20028;-69
2022/01/07 11:08:39;;;;;;;4.70;1.45;;;;;;;;;;5071436;28;20024;-69
2022/01/07 11:11:05;;;;;;;2.95;1.25;;;;;;;;;;5071477;28;20028;-70
2022/01/07 11:13:34;;;;;;;5.63;1.63;;;;;;;;;;5071214;28;20505;-69
2022/01/07 11:16:00;;;;;;;4.13;1.40;;;;;;;;;;5071354;28;20021;-69
2022/01/07 11:18:25;;;;;;;7.47;2.97;;;;;;;;;;5071261;28;20024;-69
2022/01/07 11:20:51;;;;;;;5.80;2.50;;;;;;;;;;5071345;28;20028;-69
2022/01/07 11:23:17;;;;;;;6.18;2.75;;;;;;;;;;5070969;28;20039;-69
2022/01/07 11:25:42;;;;;;;5.50;1.75;;;;;;;;;;5071258;28;20436;-69
2022/01/07 11:28:17;;;;;;;4.72;1.40;;;;;;;;;;5070945;28;20119;-69
2022/01/07 11:30:46;;;;;;;3.35;1.40;;;;;;;;;;5071133;28;20033;-69
2022/01/07 11:33:21;;;;;;;4.15;1.38;;;;;;;;;;5070941;28;20024;-69
2022/01/07 11:35:47;;;;;;;5.40;2.45;;;;;;;;;;5070967;28;20051;-69
2022/01/07 11:38:15;;;;;;;4.85;1.50;;;;;;;;;;5070843;28;20420;-69
2022/01/07 11:40:40;;;;;;;4.72;1.95;;;;;;;;;;5070796;28;20025;-69
2022/01/07 11:43:31;;;;;;;6.22;1.60;;;;;;;;;;5070676;28;20090;-69
2022/01/07 11:45:59;;;;;;;4.00;1.98;;;;;;;;;;5070813;28;20032;-69
2022/01/07 11:48:27;;;;;;;2.97;1.15;;;;;;;;;;5070590;28;20087;-69
2022/01/07 11:50:56;;;;;;;3.75;1.20;;;;;;;;;;5070684;28;20037;-69
2022/01/07 11:53:22;;;;;;;3.60;1.02;;;;;;;;;;5070492;28;20033;-68
2022/01/07 11:55:51;;;;;;;5.75;1.58;;;;;;;;;;5070508;28;20034;-69
2022/01/07 11:58:17;;;;;;;4.15;1.17;;;;;;;;;;5070643;28;20033;-69
2022/01/07 12:00:57;;;;;;;3.85;1.70;;;;;;;;;;5070549;28;20070;-69
2022/01/07 12:03:43;;;;;;;5.50;1.92;;;;;;;;;;5070208;28;20407;-69
2022/01/07 12:06:21;;;;;;;3.95;1.58;;;;;;;;;;5070425;28;20267;-69
2022/01/07 12:08:59;;;;;;;4.20;1.50;;;;;;;;;;5070407;28;20036;-69
2022/01/07 12:11:29;;;;;;;7.75;1.50;;;;;;;;;;5070295;28;20059;-70
2022/01/07 12:13:56;;;;;;;5.07;1.40;;;;;;;;;;5070103;28;20029;-69
2022/01/07 12:16:24;;;;;;;2.60;1.20;;;;;;;;;;5070285;28;20028;-69
2022/01/07 12:18:49;;;;;;;2.80;1.35;;;;;;;;;;5070498;28;20060;-69
2022/01/07 12:21:15;;;;;;;5.68;1.30;;;;;;;;;;5069558;28;20067;-69
2022/01/07 12:23:42;;;;;;;3.25;1.35;;;;;;;;;;5070084;28;20025;-69
2022/01/07 12:26:08;;;;;;;4.47;1.50;;;;;;;;;;5070194;28;20043;-69
2022/01/07 12:28:48;;;;;;;4.78;1.80;;;;;;;;;;5069928;28;20024;-69
2022/01/07 12:31:14;;;;;;;3.08;1.73;;;;;;;;;;5070165;28;20048;-69
2022/01/07 12:33:53;;;;;;;11.40;2.90;;;;;;;;;;5069979;28;20044;-69
2022/01/07 12:36:34;;;;;;;4.03;1.57;;;;;;;;;;5070190;28;20032;-69
2022/01/07 12:39:09;;;;;;;2.67;1.45;;;;;;;;;;5069775;28;20052;-69
2022/01/07 12:41:39;;;;;;;3.30;1.60;;;;;;;;;;5069972;28;20028;-72
2022/01/07 12:44:12;;;;;;;4.28;2.30;;;;;;;;;;5069651;28;20075;-71
2022/01/07 12:46:39;;;;;;;3.17;1.60;;;;;;;;;;5069997;28;20260;-72
2022/01/07 12:49:07;;;;;;;4.80;1.98;;;;;;;;;;5069913;28;20081;-69
2022/01/07 12:51:34;;;;;;;4.43;1.63;;;;;;;;;;5069878;28;20025;-70
2022/01/07 12:54:05;;;;;;;2.95;1.48;;;;;;;;;;5069715;28;20103;-69
2022/01/07 12:56:32;;;;;;;3.90;1.40;;;;;;;;;;5069893;28;20083;-69
2022/01/07 12:59:09;;;;;;;4.45;1.70;;;;;;;;;;5069875;28;20149;-69
2022/01/07 13:01:35;;;;;;;3.33;1.65;;;;;;;;;;5069755;28;20033;-72
2022/01/07 13:04:04;;;;;;;3.55;1.77;;;;;;;;;;5069673;28;20029;-72
2022/01/07 13:06:30;;;;;;;3.08;1.80;;;;;;;;;;5069847;28;20275;-69
2022/01/07 13:08:56;;;;;;;3.67;1.42;;;;;;;;;;5070042;28;20180;-69
2022/01/07 13:11:22;;;;;;;3.75;1.38;;;;;;;;;;5069781;28;20032;-69
2022/01/07 13:14:04;;;;;;;3.00;1.50;;;;;;;;;;5069914;28;20380;-69
2022/01/07 13:16:30;;;;;;;3.10;1.20;;;;;;;;;;5069714;28;20491;-69
2022/01/07 13:19:07;;;;;;;3.33;1.55;;;;;;;;;;5069637;28;20020;-72
2022/01/07 13:21:35;;;;;;;3.55;1.30;;;;;;;;;;5069774;28;20056;-69
2022/01/07 13:24:01;;;;;;;4.47;1.92;;;;;;;;;;5069242;28;20111;-69
2022/01/07 13:26:35;;;;;;;3.67;1.50;;;;;;;;;;5051830;28;20055;-69
2022/01/07 13:29:33;;;;;;;3.70;1.30;;;;;;;;;;5069346;28;20028;-69
2022/01/07 13:32:03;;;;;;;5.43;1.60;;;;;;;;;;5046020;28;20085;-72
2022/01/07 13:34:35;;;;;;;3.63;1.50;;;;;;;;;;5073320;28;20503;-69
2022/01/07 13:37:05;;;;;;;5.13;1.40;;;;;;;;;;5073114;28;20488;-69
2022/01/07 13:40:01;;;;;;;2.42;1.20;;;;;;;;;;5073185;28;20025;-69
2022/01/07 13:42:27;;;;;;;2.42;1.10;;;;;;;;;;5063951;28;20033;-69
2022/01/07 13:45:03;;;;;;;3.28;1.25;;;;;;;;;;5073070;28;20032;-69
2022/01/07 13:47:37;;;;;;;4.30;1.35;;;;;;;;;;5073042;28;20388;-69
2022/01/07 13:50:22;;;;;;;1.88;1.10;;;;;;;;;;5073079;28;20025;-70
2022/01/07 13:52:47;;;;;;;4.63;1.55;;;;;;;;;;5072848;28;20025;-69
2022/01/07 13:55:35;;;;;;;4.25;1.80;;;;;;;;;;5073482;28;20024;-69
2022/01/07 13:58:10;;;;;;;3.10;1.52;;;;;;;;;;5072777;28;20076;-69
2022/01/07 14:00:38;;;;;;;4.40;1.50;;;;;;;;;;5072936;28;20019;-69
2022/01/07 14:03:04;;;;;;;4.75;1.33;;;;;;;;;;5072489;28;20104;-69
2022/01/07 14:05:30;;;;;;;2.60;1.20;;;;;;;;;;5072546;28;20484;-71
2022/01/07 14:07:56;;;;;;;5.22;2.20;;;;;;;;;;5072666;28;20235;-69
2022/01/07 14:10:25;;;;;;;3.47;1.50;;;;;;;;;;5072807;28;20020;-69
2022/01/07 14:12:57;;;;;;;3.38;1.45;;;;;;;;;;5054509;28;20025;-69
2022/01/07 14:15:38;;;;;;;2.88;1.13;;;;;;;;;;5072727;28;20222;-69
2022/01/07 14:18:10;;;;;;;2.10;1.20;;;;;;;;;;5072697;28;20024;-69
2022/01/07 14:20:49;;;;;;;4.88;1.50;;;;;;;;;;5072971;28;20024;-69
2022/01/07 14:23:16;;;;;;;3.65;1.42;;;;;;;;;;5072252;28;20028;-69
2022/01/07 14:25:42;;;;;;;2.83;1.30;;;;;;;;;;5072806;28;20039;-69
2022/01/07 14:28:07;;;;;;;5.03;1.40;;;;;;;;;;5072230;28;20037;-70
2022/01/07 14:30:33;;;;;;;4.57;1.15;;;;;;;;;;5072207;28;20391;-70
2022/01/07 14:32:59;;;;;;;3.35;1.20;;;;;;;;;;5072065;28;20551;-72
2022/01/07 14:35:24;;;;;;;3.33;1.48;;;;;;;;;;5072159;28;20020;-70
2022/01/07 14:37:50;;;;;;;4.90;1.40;;;;;;;;;;5071971;28;20044;-69
2022/01/07 14:40:15;;;;;;;3.55;1.75;;;;;;;;;;5072171;28;20112;-69
2022/01/07 14:42:41;;;;;;;4.63;1.30;;;;;;;;;;5072161;28;20714;-69
2022/01/07 14:45:09;;;;;;;3.00;1.13;;;;;;;;;;5053091;28;20031;-69
2022/01/07 14:47:34;;;;;;;2.25;1.00;;;;;;;;;;5071768;28;20555;-69
2022/01/07 14:50:00;;;;;;;2.95;0.90;;;;;;;;;;5072304;28;20107;-69
2022/01/07 14:52:25;;;;;;;4.80;1.00;;;;;;;;;;5071805;28;20058;-71
2022/01/07 14:54:52;;;;;;;3.00;1.13;;;;;;;;;;5071880;28;20055;-69
2022/01/07 14:57:19;;;;;;;1.88;0.95;;;;;;;;;;5071949;28;20036;-69